Time;durP1;ratioP1;P1;durP2;ratioP2;P2;SDS_P1;SDS_P2;PMS_P1;PMS_P2;Temp;Humidity;BMP_temperature;BMP_pressure;BME280_temperature;BME280_humidity;BME280_pressure;Samples;Min_cycle;Max_cycle;Signal;HPM_P1;HPM_P2
2023/11/26 00:00:14;;;;;;;0.50;0.50;;;;;;;-5.09;59.34;100009.50;5103864;28;20474;-68
2023/11/26 00:02:39;;;;;;;0.60;0.60;;;;;;;-5.10;59.29;100007.78;5104962;28;20031;-68
2023/11/26 00:05:05;;;;;;;7.88;1.50;;;;;;;-5.08;59.21;100006.19;5105586;28;20091;-69
2023/11/26 00:07:30;;;;;;;0.50;0.50;;;;;;;-5.11;59.29;100004.38;5105048;28;20093;-69
2023/11/26 00:09:56;;;;;;;0.50;0.50;;;;;;;-5.11;59.24;100000.94;5115838;22;20058;-67
2023/11/26 00:12:21;;;;;;;0.50;0.50;;;;;;;-5.14;59.13;99995.75;5111512;22;20044;-68
2023/11/26 00:14:47;;;;;;;0.60;0.60;;;;;;;-5.10;59.18;100013.69;5129901;22;20046;-69
2023/11/26 00:17:20;;;;;;;0.60;0.60;;;;;;;-5.32;59.50;99985.59;5115622;22;20036;-71
2023/11/26 00:19:46;;;;;;;0.55;0.55;;;;;;;-5.16;59.31;100010.00;5137286;22;20469;-70
2023/11/26 00:22:11;;;;;;;0.50;0.50;;;;;;;-5.15;59.20;100014.25;5107837;23;20086;-68
2023/11/26 00:24:37;;;;;;;0.60;0.60;;;;;;;-5.11;59.19;100016.13;5086795;28;20051;-67
2023/11/26 00:27:03;;;;;;;0.60;0.60;;;;;;;-5.13;59.10;100005.94;5110031;22;20066;-71
2023/11/26 00:29:28;;;;;;;0.60;0.60;;;;;;;-5.05;59.44;100021.53;5109535;23;20060;-68
2023/11/26 00:31:53;;;;;;;0.60;0.60;;;;;;;-5.14;59.36;99998.28;5104330;22;20089;-70
2023/11/26 00:34:19;;;;;;;0.50;0.50;;;;;;;-5.07;59.48;100009.56;5105258;28;20016;-70
2023/11/26 00:36:44;;;;;;;0.77;0.77;;;;;;;-5.02;59.59;100015.75;5086826;28;20024;-69
2023/11/26 00:39:09;;;;;;;0.50;0.50;;;;;;;-5.01;59.54;100013.28;5104765;28;20511;-71
2023/11/26 00:41:35;;;;;;;0.57;0.57;;;;;;;-5.00;59.63;100011.63;5109194;23;20040;-68
2023/11/26 00:44:01;;;;;;;0.50;0.50;;;;;;;-4.98;59.70;100004.94;5104930;28;20020;-68
2023/11/26 00:46:26;;;;;;;0.50;0.50;;;;;;;-4.99;59.66;100009.16;5104612;28;20102;-69
2023/11/26 00:48:52;;;;;;;0.50;0.50;;;;;;;-5.00;59.73;100020.06;5104620;28;20049;-68
2023/11/26 00:51:19;;;;;;;0.50;0.50;;;;;;;-4.98;59.62;100023.56;5103438;28;20047;-69
2023/11/26 00:53:44;;;;;;;0.60;0.60;;;;;;;-5.01;59.98;100020.00;5102905;28;20056;-68
2023/11/26 00:56:10;;;;;;;0.50;0.50;;;;;;;-4.99;60.19;100010.81;5103551;28;20020;-68
2023/11/26 00:58:35;;;;;;;0.55;0.55;;;;;;;-4.94;59.99;100013.56;5104417;28;20046;-69
2023/11/26 01:01:00;;;;;;;0.60;0.60;;;;;;;-4.99;60.14;100011.69;5105383;28;20043;-68
2023/11/26 01:03:26;;;;;;;0.75;0.75;;;;;;;-4.90;60.01;100020.50;5108620;28;20111;-68
2023/11/26 01:05:52;;;;;;;0.68;0.68;;;;;;;-4.96;60.10;100018.56;5114259;23;20055;-69
2023/11/26 01:08:17;;;;;;;0.60;0.60;;;;;;;-4.98;60.36;100023.56;5106970;28;20021;-69
2023/11/26 01:10:42;;;;;;;0.82;0.80;;;;;;;-4.91;60.13;100022.19;5106888;28;20019;-69
2023/11/26 01:13:08;;;;;;;0.50;0.50;;;;;;;-4.85;60.35;100025.03;5111897;22;20050;-68
2023/11/26 01:15:33;;;;;;;0.70;0.70;;;;;;;-4.85;60.30;100029.22;5106812;28;20016;-68
2023/11/26 01:17:58;;;;;;;0.50;0.50;;;;;;;-4.80;60.55;100022.72;5107343;28;20028;-68
2023/11/26 01:20:24;;;;;;;0.60;0.60;;;;;;;-4.82;60.42;100011.63;5107089;28;20020;-69
2023/11/26 01:22:49;;;;;;;0.50;0.50;;;;;;;-4.88;59.72;100007.16;5107874;28;20024;-70
2023/11/26 01:25:15;;;;;;;0.50;0.50;;;;;;;-4.77;60.17;100027.91;5108027;28;20074;-67
2023/11/26 01:27:40;;;;;;;0.50;0.50;;;;;;;-4.78;60.09;100031.25;5107683;28;20031;-69
2023/11/26 01:30:06;;;;;;;0.60;0.60;;;;;;;-4.85;60.25;100019.97;5107870;28;20024;-67
2023/11/26 01:32:32;;;;;;;1.50;1.45;;;;;;;-4.81;60.01;100031.09;5111942;23;20047;-69
2023/11/26 01:34:58;;;;;;;1.40;1.30;;;;;;;-4.80;59.88;100026.88;5109853;28;20039;-69
2023/11/26 01:37:24;;;;;;;0.50;0.50;;;;;;;-4.81;60.14;100036.19;5122718;22;20052;-68
2023/11/26 01:39:49;;;;;;;0.65;0.65;;;;;;;-5.00;60.05;99994.75;5108063;28;20020;-67
2023/11/26 01:42:15;;;;;;;0.50;0.50;;;;;;;-4.87;60.01;100020.66;5107843;28;20024;-67
2023/11/26 01:44:40;;;;;;;0.60;0.60;;;;;;;-4.91;59.94;100018.78;5107813;28;20028;-66
2023/11/26 01:47:06;;;;;;;0.52;0.52;;;;;;;-4.89;60.05;100027.34;5107573;28;20048;-67
2023/11/26 01:49:33;;;;;;;0.50;0.50;;;;;;;-4.94;60.07;100019.50;5105860;28;20027;-67
2023/11/26 01:52:00;;;;;;;0.50;0.50;;;;;;;-4.98;60.00;100022.69;5128035;28;20117;-67
2023/11/26 01:54:31;;;;;;;0.80;0.80;;;;;;;-4.94;60.11;100031.31;5127589;28;20011;-66
2023/11/26 01:56:59;;;;;;;1.17;1.17;;;;;;;-5.00;60.23;100019.22;5127940;28;20019;-67
2023/11/26 01:59:25;;;;;;;0.60;0.60;;;;;;;-5.08;59.97;100016.31;5127850;28;20032;-66
2023/11/26 02:01:50;;;;;;;0.90;0.82;;;;;;;-4.97;60.13;100030.34;5128035;28;20023;-67
2023/11/26 02:04:16;;;;;;;0.50;0.50;;;;;;;-5.04;60.15;100022.38;5130038;22;20578;-69
2023/11/26 02:06:41;;;;;;;0.95;0.95;;;;;;;-5.05;59.99;100026.59;5127900;28;20032;-70
2023/11/26 02:09:10;;;;;;;0.60;0.60;;;;;;;-5.01;60.29;100032.66;5108214;23;20508;-71
2023/11/26 02:11:37;;;;;;;0.68;0.68;;;;;;;-5.04;60.29;100022.38;5125045;23;20055;-68
2023/11/26 02:14:02;;;;;;;0.77;0.77;;;;;;;-5.02;60.13;100019.16;5109456;22;20470;-70
2023/11/26 02:16:28;;;;;;;0.60;0.60;;;;;;;-5.11;60.70;100008.56;5098847;23;20142;-67
2023/11/26 02:18:53;;;;;;;0.50;0.50;;;;;;;-5.15;61.00;100005.03;5126741;28;20028;-67
2023/11/26 02:21:19;;;;;;;0.52;0.52;;;;;;;-5.10;60.88;100003.56;5106739;28;20019;-67
2023/11/26 02:23:45;;;;;;;0.60;0.60;;;;;;;-5.07;60.76;100002.84;5127182;28;20035;-68
2023/11/26 02:26:11;;;;;;;0.80;0.80;;;;;;;-5.03;60.68;100006.41;5127373;28;20015;-66
2023/11/26 02:28:37;;;;;;;0.50;0.50;;;;;;;-5.05;60.63;99998.75;5069268;22;20048;-67
2023/11/26 02:31:04;;;;;;;0.52;0.52;;;;;;;-5.08;60.79;100005.31;5086417;28;20020;-68
2023/11/26 02:33:30;;;;;;;0.60;0.60;;;;;;;-5.12;60.54;99999.22;5068204;28;20420;-68
2023/11/26 02:35:56;;;;;;;0.80;0.80;;;;;;;-5.07;60.72;100007.03;5086006;28;20029;-67
2023/11/26 02:38:22;;;;;;;2.25;2.15;;;;;;;-5.05;60.45;100013.94;5071030;22;21148;-68
2023/11/26 02:40:48;;;;;;;0.70;0.70;;;;;;;-5.09;60.51;100006.97;5068196;28;20059;-68
2023/11/26 02:43:15;;;;;;;0.93;0.90;;;;;;;-5.11;60.41;100008.56;5067897;28;20031;-69
2023/11/26 02:45:41;;;;;;;0.70;0.70;;;;;;;-5.15;61.01;100004.16;5086087;28;20024;-68
2023/11/26 02:48:08;;;;;;;1.75;1.08;;;;;;;-5.14;61.04;100010.94;5106342;22;20053;-69
2023/11/26 02:50:33;;;;;;;0.82;0.82;;;;;;;-5.18;61.13;99996.41;5068218;28;20032;-69
2023/11/26 02:52:59;;;;;;;0.50;0.50;;;;;;;-5.15;61.15;100001.63;5085712;28;20017;-69
2023/11/26 02:55:24;;;;;;;0.60;0.60;;;;;;;-5.22;61.42;99996.25;5084827;28;20115;-67
2023/11/26 02:57:50;;;;;;;1.00;0.77;;;;;;;-5.19;61.47;100003.13;5085762;28;20024;-68
2023/11/26 03:00:15;;;;;;;0.50;0.50;;;;;;;-5.22;61.92;99996.25;5085962;28;20021;-69
2023/11/26 03:02:44;;;;;;;0.50;0.50;;;;;;;-5.24;62.06;100004.56;5086032;28;20028;-68
2023/11/26 03:05:17;;;;;;;0.50;0.50;;;;;;;-5.24;61.75;99995.28;5067977;28;20024;-69
2023/11/26 03:07:47;;;;;;;0.60;0.60;;;;;;;-5.28;61.35;99993.44;5111210;22;20049;-68
2023/11/26 03:13:11;;;;;;;0.50;0.50;;;;;;;-5.27;61.27;100002.75;5085614;28;20035;-69
2023/11/26 03:15:38;;;;;;;0.50;0.50;;;;;;;-5.30;61.10;99995.00;5085590;28;20024;-68
2023/11/26 03:18:04;;;;;;;0.70;0.70;;;;;;;-5.33;61.00;99989.78;5085514;28;20076;-68
2023/11/26 03:20:31;;;;;;;0.52;0.52;;;;;;;-5.34;61.13;99990.59;5092081;22;20045;-67
2023/11/26 03:22:57;;;;;;;1.00;1.00;;;;;;;-5.30;61.11;99996.69;5093069;22;20548;-69
2023/11/26 03:25:24;;;;;;;0.50;0.50;;;;;;;-5.32;61.23;99996.59;5080611;22;20135;-68
2023/11/26 03:27:52;;;;;;;0.77;0.77;;;;;;;-5.34;61.16;99993.13;5085034;28;20025;-69
2023/11/26 03:30:18;;;;;;;0.60;0.60;;;;;;;-5.35;61.03;99994.78;5085785;28;20082;-68
2023/11/26 03:32:43;;;;;;;0.80;0.80;;;;;;;-5.28;61.18;99997.59;5067374;28;20024;-68
2023/11/26 03:35:09;;;;;;;0.60;0.60;;;;;;;-5.34;61.42;99985.53;5085455;28;20025;-68
2023/11/26 03:37:34;;;;;;;1.08;0.80;;;;;;;-5.29;61.66;99985.75;5091775;22;20053;-67
2023/11/26 03:39:59;;;;;;;0.60;0.60;;;;;;;-5.35;61.79;99984.66;5085367;28;20034;-67
2023/11/26 03:42:25;;;;;;;0.68;0.68;;;;;;;-5.30;61.31;99984.03;5085190;28;20056;-67
2023/11/26 03:44:50;;;;;;;0.50;0.50;;;;;;;-5.28;61.42;99984.94;5085317;28;20016;-67
2023/11/26 03:47:16;;;;;;;0.82;0.82;;;;;;;-5.30;61.41;99984.88;5085081;28;20023;-67
2023/11/26 03:49:41;;;;;;;0.52;0.52;;;;;;;-5.32;61.57;99975.50;5066713;28;20025;-67
2023/11/26 03:52:08;;;;;;;0.55;0.55;;;;;;;-5.24;61.87;99984.31;5085069;28;20024;-67
2023/11/26 03:54:34;;;;;;;0.50;0.50;;;;;;;-5.20;61.81;99972.66;5066891;28;20111;-67
2023/11/26 03:57:00;;;;;;;0.50;0.50;;;;;;;-5.21;61.83;99969.28;5096547;22;20086;-68
2023/11/26 03:59:25;;;;;;;0.60;0.60;;;;;;;-5.22;62.11;99970.94;5062897;23;20041;-67
2023/11/26 04:01:51;;;;;;;0.55;0.55;;;;;;;-5.10;61.79;99985.00;5084699;28;20020;-67
2023/11/26 04:04:17;;;;;;;1.55;1.45;;;;;;;-5.08;62.06;99978.34;5066758;28;20040;-66
2023/11/26 04:06:42;;;;;;;0.70;0.70;;;;;;;-5.08;61.67;99975.81;5084988;28;20021;-66
2023/11/26 04:09:07;;;;;;;0.70;0.70;;;;;;;-5.12;61.89;99963.78;5068549;23;20049;-69
2023/11/26 04:11:33;;;;;;;0.57;0.50;;;;;;;-5.17;62.06;99955.97;5063862;22;20098;-69
2023/11/26 04:13:59;;;;;;;0.70;0.70;;;;;;;-5.07;61.85;99972.47;5099357;22;20048;-67
2023/11/26 04:16:24;;;;;;;0.50;0.50;;;;;;;-5.10;61.78;99974.88;5088549;22;20065;-69
2023/11/26 04:18:49;;;;;;;0.68;0.68;;;;;;;-5.15;61.75;99972.13;5091356;22;20052;-68
2023/11/26 04:21:15;;;;;;;0.52;0.52;;;;;;;-5.21;61.50;99959.16;5090633;22;20421;-69
2023/11/26 04:23:40;;;;;;;0.88;0.88;;;;;;;-5.23;61.71;99963.28;5090853;22;20135;-67
2023/11/26 04:26:06;;;;;;;0.73;0.73;;;;;;;-5.29;61.63;99961.31;5084986;28;20052;-67
2023/11/26 04:28:32;;;;;;;0.60;0.60;;;;;;;-5.30;61.49;99962.09;5061152;22;20053;-67
2023/11/26 04:30:57;;;;;;;0.60;0.60;;;;;;;-5.36;61.75;99964.34;5064373;28;20097;-67
2023/11/26 04:33:23;;;;;;;0.52;0.52;;;;;;;-5.38;61.62;99968.44;5064543;28;20036;-66
2023/11/26 04:35:49;;;;;;;2.45;2.25;;;;;;;-5.48;61.79;99960.41;5063776;28;20021;-67
2023/11/26 04:38:14;;;;;;;0.60;0.60;;;;;;;-5.49;61.98;99963.75;5068636;28;20028;-68
2023/11/26 04:40:40;;;;;;;0.90;0.90;;;;;;;-5.50;62.14;99961.13;5068677;28;20025;-67
2023/11/26 04:43:06;;;;;;;0.60;0.60;;;;;;;-5.52;62.08;99962.72;5067469;28;20032;-67
2023/11/26 04:45:31;;;;;;;0.68;0.68;;;;;;;-5.57;62.12;99949.84;5068270;28;20024;-67
2023/11/26 04:47:57;;;;;;;0.57;0.57;;;;;;;-5.56;62.31;99961.72;5068412;28;20033;-68
2023/11/26 04:50:23;;;;;;;0.60;0.60;;;;;;;-5.56;62.27;99964.25;5068439;28;20016;-66
2023/11/26 04:52:50;;;;;;;0.65;0.65;;;;;;;-5.56;62.37;99959.19;5066806;28;20381;-66
2023/11/26 04:55:19;;;;;;;0.70;0.70;;;;;;;-5.52;62.16;99962.72;5068168;28;20085;-66
2023/11/26 04:57:46;;;;;;;0.60;0.60;;;;;;;-5.52;62.25;99963.59;5067652;28;20020;-66
2023/11/26 05:00:13;;;;;;;0.60;0.60;;;;;;;-5.50;62.25;99966.19;5067713;28;20024;-66
2023/11/26 05:02:40;;;;;;;8.93;2.33;;;;;;;-5.59;62.14;99953.94;5067726;28;20423;-65
2023/11/26 05:05:08;;;;;;;1.17;1.15;;;;;;;-5.52;62.33;99967.75;5067954;28;20385;-67
2023/11/26 05:07:37;;;;;;;0.50;0.50;;;;;;;-5.51;62.41;99969.53;5068230;28;20020;-66
2023/11/26 05:10:03;;;;;;;0.50;0.50;;;;;;;-5.49;62.38;99975.50;5067977;28;20025;-66
2023/11/26 05:12:29;;;;;;;0.50;0.50;;;;;;;-5.47;62.17;99982.41;5067043;28;20029;-66
2023/11/26 05:14:54;;;;;;;1.77;1.67;;;;;;;-5.49;62.43;99980.56;5067999;28;20560;-66
2023/11/26 05:17:19;;;;;;;0.50;0.50;;;;;;;-5.48;62.17;99982.31;5064830;28;20021;-66
2023/11/26 05:19:45;;;;;;;0.50;0.50;;;;;;;-5.47;62.08;99982.41;5090245;22;20064;-69
2023/11/26 05:22:10;;;;;;;0.55;0.55;;;;;;;-5.51;62.36;99982.19;5112568;22;20082;-66
2023/11/26 05:24:37;;;;;;;0.60;0.60;;;;;;;-5.48;62.08;99988.22;5084271;28;20071;-69
2023/11/26 05:27:03;;;;;;;0.63;0.63;;;;;;;-5.57;62.07;99976.81;5093550;22;20055;-69
2023/11/26 05:29:28;;;;;;;0.50;0.50;;;;;;;-5.52;62.00;99990.53;5098931;22;20131;-65
2023/11/26 05:31:53;;;;;;;0.50;0.50;;;;;;;-5.55;62.14;99991.25;5087565;28;20031;-66
2023/11/26 05:34:19;;;;;;;0.50;0.50;;;;;;;-5.61;62.49;99989.28;5069510;28;20024;-66
2023/11/26 05:36:44;;;;;;;0.60;0.60;;;;;;;-5.63;62.55;99978.22;5069492;28;20115;-67
2023/11/26 05:39:11;;;;;;;0.55;0.55;;;;;;;-5.55;62.75;99988.72;5085942;28;20027;-67
2023/11/26 05:41:36;;;;;;;0.60;0.60;;;;;;;-5.62;62.45;99986.66;5087440;28;20034;-66
2023/11/26 05:44:02;;;;;;;0.95;0.95;;;;;;;-5.58;63.08;99998.69;5087755;28;20048;-66
2023/11/26 05:46:27;;;;;;;0.57;0.57;;;;;;;-5.57;62.94;100000.44;5102411;22;20048;-66
2023/11/26 05:48:52;;;;;;;0.50;0.50;;;;;;;-5.56;62.91;99997.13;5086679;28;20055;-67
2023/11/26 05:51:22;;;;;;;0.50;0.50;;;;;;;-5.57;62.92;100007.16;5087823;28;20021;-66
2023/11/26 05:53:48;;;;;;;0.70;0.70;;;;;;;-5.55;62.57;100003.91;5087260;28;20074;-66
2023/11/26 05:56:13;;;;;;;0.80;0.80;;;;;;;-5.58;62.62;100000.34;5069358;28;20017;-65
2023/11/26 05:58:38;;;;;;;0.73;0.73;;;;;;;-5.62;62.82;100001.84;5087039;28;20021;-66
2023/11/26 06:01:04;;;;;;;1.90;1.80;;;;;;;-5.75;62.58;99986.06;5087196;28;20455;-67
2023/11/26 06:03:29;;;;;;;0.50;0.50;;;;;;;-5.67;62.65;99999.09;5086997;28;20033;-67
2023/11/26 06:05:55;;;;;;;0.50;0.50;;;;;;;-5.65;62.34;100001.69;5087351;28;20032;-65
2023/11/26 06:08:20;;;;;;;0.60;0.60;;;;;;;-5.69;62.33;100002.34;5086986;28;20113;-65
2023/11/26 06:10:46;;;;;;;0.60;0.60;;;;;;;-5.73;62.36;99996.25;5086796;28;20048;-66
2023/11/26 06:13:12;;;;;;;0.50;0.50;;;;;;;-5.74;62.35;100012.22;5068978;28;20016;-66
2023/11/26 06:15:38;;;;;;;0.60;0.60;;;;;;;-5.76;62.15;100014.69;5087023;28;20042;-65
2023/11/26 06:18:04;;;;;;;0.57;0.57;;;;;;;-5.82;62.09;100013.47;5125742;22;20499;-65
2023/11/26 06:20:29;;;;;;;0.82;0.82;;;;;;;-5.80;61.99;100020.38;5091881;22;20103;-69
2023/11/26 06:23:10;;;;;;;0.70;0.70;;;;;;;-5.81;62.14;100027.88;5098622;22;20045;-69
2023/11/26 06:25:36;;;;;;;0.60;0.60;;;;;;;-5.83;62.00;100024.41;5093369;22;20048;-67
2023/11/26 06:28:01;;;;;;;0.52;0.52;;;;;;;-5.82;61.88;100029.53;5068507;28;20107;-67
2023/11/26 06:30:27;;;;;;;0.93;0.93;;;;;;;-5.87;62.01;100028.41;5086742;28;20012;-68
2023/11/26 06:32:53;;;;;;;0.60;0.60;;;;;;;-5.91;62.12;100029.06;5086602;28;20511;-68
2023/11/26 06:35:19;;;;;;;0.60;0.60;;;;;;;-6.03;62.05;100004.88;5086495;28;20049;-68
2023/11/26 06:37:44;;;;;;;0.60;0.60;;;;;;;-5.95;62.07;100024.63;5092901;22;20071;-69
2023/11/26 06:40:12;;;;;;;0.70;0.70;;;;;;;-5.98;62.05;100012.69;5110595;22;20325;-70
2023/11/26 06:42:41;;;;;;;0.88;0.88;;;;;;;-5.95;62.24;100022.09;5092705;22;20041;-65
2023/11/26 06:45:08;;;;;;;0.60;0.60;;;;;;;-6.02;62.49;100026.81;5067954;28;20028;-66
2023/11/26 06:47:33;;;;;;;0.60;0.60;;;;;;;-6.03;62.56;100011.56;5095687;22;20048;-67
2023/11/26 06:49:59;;;;;;;0.85;0.85;;;;;;;-5.94;63.13;100018.78;5086246;28;20105;-67
2023/11/26 06:52:24;;;;;;;0.68;0.68;;;;;;;-5.88;63.00;100019.94;5108586;22;20049;-69
2023/11/26 06:54:49;;;;;;;0.60;0.60;;;;;;;-5.86;62.70;100012.44;5105105;28;20079;-68
2023/11/26 06:57:15;;;;;;;0.80;0.80;;;;;;;-5.87;63.00;100016.66;5106461;28;20028;-68
2023/11/26 06:59:40;;;;;;;1.45;1.35;;;;;;;-5.87;63.18;100014.13;5105199;28;20208;-68
2023/11/26 07:02:08;;;;;;;0.70;0.70;;;;;;;-5.88;63.19;100014.03;5106259;28;20032;-68
2023/11/26 07:04:34;;;;;;;1.83;1.73;;;;;;;-5.90;62.80;100002.97;5098970;22;20049;-66
2023/11/26 07:06:59;;;;;;;0.60;0.60;;;;;;;-5.88;63.40;100016.56;5084951;28;20122;-65
2023/11/26 07:09:24;;;;;;;0.60;0.60;;;;;;;-5.86;63.95;100009.91;5084775;28;20017;-66
2023/11/26 07:11:50;;;;;;;0.98;0.98;;;;;;;-5.78;63.32;100018.78;5085712;28;20107;-66
2023/11/26 07:14:16;;;;;;;0.60;0.60;;;;;;;-5.86;63.56;100004.88;5085327;28;20056;-66
2023/11/26 07:16:44;;;;;;;0.50;0.50;;;;;;;-5.78;64.32;100013.72;5097109;22;20068;-66
2023/11/26 07:19:09;;;;;;;0.60;0.60;;;;;;;-5.76;64.23;100001.16;5085356;28;20017;-65
2023/11/26 07:21:41;;;;;;;0.70;0.70;;;;;;;-5.67;64.28;100014.25;5092308;22;20048;-68
2023/11/26 07:24:06;;;;;;;;;;;;;;;-5.64;64.44;100009.34;5092435;22;20059;-66
2023/11/26 07:26:32;;;;;;;0.95;0.95;;;;;;;-5.68;64.79;100001.53;5084680;28;19940;-66
2023/11/26 07:28:57;;;;;;;0.60;0.60;;;;;;;-5.53;64.64;100012.47;5094599;22;20019;-68
2023/11/26 07:31:23;;;;;;;1.40;1.30;;;;;;;-5.47;64.78;100015.28;5091495;22;20063;-68
2023/11/26 07:33:48;;;;;;;0.60;0.60;;;;;;;-5.43;63.77;100002.78;5067117;28;20036;-68
2023/11/26 07:36:19;;;;;;;0.82;0.82;;;;;;;-5.35;63.99;100004.91;5066943;28;20027;-66
2023/11/26 07:38:44;;;;;;;0.75;0.75;;;;;;;-5.32;63.52;99996.59;5085208;28;20031;-68
2023/11/26 07:41:10;;;;;;;0.52;0.52;;;;;;;-5.31;63.55;99993.28;5085123;28;20505;-67
2023/11/26 07:43:43;;;;;;;1.17;1.17;;;;;;;-5.17;63.65;100001.53;5085053;28;20031;-68
2023/11/26 07:46:12;;;;;;;0.60;0.60;;;;;;;-5.12;63.37;100001.75;5085108;28;20021;-67
2023/11/26 07:48:38;;;;;;;0.75;0.75;;;;;;;-5.04;63.48;100002.13;5084907;28;20021;-67
2023/11/26 07:51:03;;;;;;;0.60;0.60;;;;;;;-4.69;63.76;100020.69;5067040;28;20027;-67
2023/11/26 07:53:38;;;;;;;0.60;0.60;;;;;;;-4.11;63.29;100025.84;5084653;28;20051;-68
2023/11/26 07:56:03;;;;;;;0.85;0.85;;;;;;;-3.60;62.63;100037.34;5084970;28;20055;-69
2023/11/26 07:58:31;;;;;;;1.63;1.00;;;;;;;-3.18;61.91;100028.91;5084734;28;20024;-68
2023/11/26 08:00:57;;;;;;;0.50;0.50;;;;;;;-2.81;61.35;100024.47;5066706;28;20024;-67
2023/11/26 08:03:25;;;;;;;0.50;0.50;;;;;;;-2.59;61.23;100024.47;5085327;28;20046;-68
2023/11/26 08:05:50;;;;;;;18.10;1.55;;;;;;;-2.53;61.01;100019.63;5084703;28;20020;-67
2023/11/26 08:10:43;;;;;;;0.82;0.82;;;;;;;-1.93;61.02;100017.59;5098771;22;20059;-66
2023/11/26 08:13:09;;;;;;;0.57;0.57;;;;;;;-2.01;60.38;100013.06;5084909;28;20265;-66
2023/11/26 08:15:34;;;;;;;0.57;0.57;;;;;;;-2.29;60.25;100024.78;5084775;28;20089;-66
2023/11/26 08:18:00;;;;;;;0.50;0.50;;;;;;;-2.51;60.85;100020.53;5066535;28;20025;-67
2023/11/26 08:20:26;;;;;;;0.50;0.50;;;;;;;-2.48;61.21;100018.13;5066643;28;20017;-66
2023/11/26 08:22:52;;;;;;;0.57;0.57;;;;;;;-2.52;61.17;100021.34;5084175;28;20055;-65
2023/11/26 08:25:23;;;;;;;1.00;1.00;;;;;;;-2.37;61.29;100011.78;5084775;28;20020;-66
2023/11/26 08:27:51;;;;;;;0.70;0.70;;;;;;;-2.01;60.84;100022.38;5083688;22;20044;-69
2023/11/26 08:30:32;;;;;;;0.50;0.50;;;;;;;-1.91;60.73;100021.03;5084690;28;20035;-70
2023/11/26 08:33:05;;;;;;;0.60;0.60;;;;;;;-1.88;60.38;100016.06;5084461;28;20017;-69
2023/11/26 08:35:32;;;;;;;0.82;0.82;;;;;;;-1.96;60.36;100014.91;5066556;28;20039;-69
2023/11/26 08:37:58;;;;;;;0.70;0.68;;;;;;;-1.98;60.69;100014.84;5091019;22;20033;-66
2023/11/26 08:40:25;;;;;;;0.50;0.50;;;;;;;-1.81;60.86;100015.47;5082002;28;20024;-65
2023/11/26 08:42:54;;;;;;;0.50;0.50;;;;;;;-1.46;61.27;100011.56;5084326;28;20035;-66
2023/11/26 08:45:20;;;;;;;0.60;0.60;;;;;;;-1.03;61.35;100007.91;5066898;28;20107;-65
2023/11/26 08:47:47;;;;;;;0.50;0.50;;;;;;;-0.55;61.67;100011.09;5084696;28;20020;-66
2023/11/26 08:50:13;;;;;;;0.50;0.50;;;;;;;0.04;61.93;100021.25;5084523;28;20025;-66
2023/11/26 08:52:39;;;;;;;0.40;0.40;;;;;;;0.47;60.17;100025.00;5066133;22;20095;-70
2023/11/26 08:55:05;;;;;;;0.55;0.55;;;;;;;0.99;60.48;100003.31;5072570;22;20049;-69
2023/11/26 08:58:01;;;;;;;0.50;0.50;;;;;;;1.26;58.10;99986.88;5065950;28;20050;-70
2023/11/26 09:00:27;;;;;;;0.60;0.60;;;;;;;1.59;58.78;100000.38;5069179;22;20057;-69
2023/11/26 09:02:52;;;;;;;1.60;0.95;;;;;;;1.71;59.13;100000.63;5064188;28;20033;-68
2023/11/26 09:05:18;;;;;;;0.50;0.50;;;;;;;1.78;56.96;100013.56;5064443;28;20393;-68
2023/11/26 09:07:45;;;;;;;0.50;0.50;;;;;;;1.99;59.23;100010.59;5064347;28;20468;-67
2023/11/26 09:12:50;;;;;;;1.58;0.80;;;;;;;2.18;59.11;100005.84;5121814;28;20390;-66
2023/11/26 09:15:16;;;;;;;0.60;0.60;;;;;;;2.14;59.30;100004.91;5124891;28;20034;-66
2023/11/26 09:17:41;;;;;;;0.70;0.70;;;;;;;2.04;59.66;99993.63;5106694;28;20024;-66
2023/11/26 09:20:11;;;;;;;0.50;0.50;;;;;;;2.01;56.69;100013.19;5125255;28;20043;-65
2023/11/26 09:22:39;;;;;;;0.50;0.50;;;;;;;2.05;54.80;99999.59;5140071;22;20059;-68
2023/11/26 09:25:08;;;;;;;0.40;0.40;;;;;;;2.15;57.18;100003.22;5087476;28;20020;-67
2023/11/26 09:27:33;;;;;;;1.20;0.60;;;;;;;2.17;57.88;100002.41;5088576;22;20048;-66
2023/11/26 09:29:59;;;;;;;0.77;0.68;;;;;;;2.09;56.35;99999.69;5098492;22;20021;-69
2023/11/26 09:32:24;;;;;;;0.75;0.75;;;;;;;1.93;55.08;100001.06;5085037;28;20079;-70
2023/11/26 09:34:52;;;;;;;0.85;0.68;;;;;;;2.17;58.33;100010.09;5086378;28;20032;-68
2023/11/26 09:37:18;;;;;;;0.50;0.50;;;;;;;2.48;56.12;100009.81;5086141;28;20024;-69
2023/11/26 09:39:44;;;;;;;0.80;0.70;;;;;;;2.87;56.31;99992.56;5086620;28;20024;-68
2023/11/26 09:42:11;;;;;;;0.50;0.50;;;;;;;3.37;56.63;100003.56;5096607;22;20035;-65
2023/11/26 09:44:37;;;;;;;0.80;0.80;;;;;;;3.62;56.06;99996.22;5088866;28;20054;-65
2023/11/26 09:47:03;;;;;;;0.60;0.60;;;;;;;4.05;56.02;100005.31;5107700;28;20020;-65
2023/11/26 09:49:28;;;;;;;0.70;0.65;;;;;;;4.41;54.55;100016.84;5107498;28;20027;-65
2023/11/26 09:51:58;;;;;;;0.40;0.40;;;;;;;4.43;51.83;100019.41;5107893;28;20031;-67
2023/11/26 09:54:25;;;;;;;0.57;0.57;;;;;;;4.75;55.50;100016.31;5095619;22;20020;-69
2023/11/26 09:56:58;;;;;;;0.95;0.80;;;;;;;4.78;52.15;99998.34;5085205;22;20044;-66
2023/11/26 09:59:25;;;;;;;7.13;0.77;;;;;;;5.05;50.58;100008.84;5067822;28;20025;-66
2023/11/26 10:01:50;;;;;;;0.50;0.50;;;;;;;5.26;48.24;100017.56;5084680;28;20020;-66
2023/11/26 10:04:17;;;;;;;1.08;0.98;;;;;;;5.18;48.21;100018.38;5071100;22;20053;-67
2023/11/26 10:06:50;;;;;;;1.10;1.00;;;;;;;4.79;48.92;99996.63;5096675;22;20086;-66
2023/11/26 10:09:17;;;;;;;0.73;0.63;;;;;;;4.75;49.73;100020.59;5086991;28;20033;-64
2023/11/26 10:11:43;;;;;;;0.60;0.60;;;;;;;4.50;50.13;100002.38;5087320;28;20024;-65
2023/11/26 10:14:16;;;;;;;1.63;0.88;;;;;;;4.13;47.90;100024.25;5092790;22;20051;-67
2023/11/26 10:16:43;;;;;;;0.45;0.45;;;;;;;3.89;47.80;100017.97;5086189;28;20023;-67
2023/11/26 10:19:24;;;;;;;1.00;1.00;;;;;;;3.80;46.36;100028.97;5069050;28;20036;-68
2023/11/26 10:21:59;;;;;;;1.60;1.50;;;;;;;3.91;47.34;100021.44;5086898;28;20055;-69
2023/11/26 10:24:27;;;;;;;0.50;0.50;;;;;;;3.96;47.56;100029.19;5068748;28;20476;-67
2023/11/26 10:26:54;;;;;;;0.75;0.75;;;;;;;3.82;46.43;100011.88;5105913;22;20083;-74
2023/11/26 10:29:25;;;;;;;1.00;0.95;;;;;;;3.59;46.78;100014.16;5069216;22;20038;-67
2023/11/26 10:32:05;;;;;;;6.88;0.82;;;;;;;3.43;46.98;100023.34;5046757;28;20100;-66
2023/11/26 10:34:35;;;;;;;0.50;0.50;;;;;;;3.19;47.11;100020.44;5046000;28;20026;-67
2023/11/26 10:37:03;;;;;;;0.55;0.55;;;;;;;3.02;47.69;100025.25;5046487;28;20061;-66
2023/11/26 10:39:28;;;;;;;1.20;1.10;;;;;;;2.81;48.31;100021.50;5046435;28;20029;-67
2023/11/26 10:41:54;;;;;;;1.02;0.70;;;;;;;2.77;49.08;100022.28;5045015;28;20156;-66
2023/11/26 10:44:21;;;;;;;0.80;0.80;;;;;;;2.81;51.10;100018.94;5046504;28;20026;-66
2023/11/26 10:46:48;;;;;;;2.92;1.30;;;;;;;2.87;49.58;100013.06;5046156;28;20029;-66
2023/11/26 10:52:32;;;;;;;0.80;0.80;;;;;;;3.15;48.22;100010.94;5093460;22;20052;-65
2023/11/26 10:55:04;;;;;;;1.05;0.90;;;;;;;3.74;47.83;100010.06;5081010;22;20261;-67
2023/11/26 10:57:39;;;;;;;1.55;1.45;;;;;;;4.54;47.29;100001.53;5086276;28;20032;-68
2023/11/26 11:00:08;;;;;;;0.95;0.85;;;;;;;5.45;46.11;100003.13;5085975;28;20485;-67
2023/11/26 11:02:36;;;;;;;1.83;1.15;;;;;;;5.85;44.73;99991.31;5068568;28;20400;-66
2023/11/26 11:05:04;;;;;;;1.35;1.25;;;;;;;6.22;43.99;100011.22;5085644;28;20052;-65
2023/11/26 11:07:32;;;;;;;2.00;0.93;;;;;;;6.35;43.56;99999.22;5085728;28;20024;-66
2023/11/26 11:10:11;;;;;;;1.20;1.13;;;;;;;6.44;43.63;99997.53;5085585;28;20048;-66
2023/11/26 11:13:00;;;;;;;0.82;0.82;;;;;;;6.64;43.14;99986.41;5085714;28;20032;-66
2023/11/26 11:15:26;;;;;;;3.97;2.13;;;;;;;6.66;42.19;99971.75;5085917;28;20016;-66
2023/11/26 11:17:52;;;;;;;5.63;1.10;;;;;;;6.28;43.13;99981.16;5105227;23;20086;-65
2023/11/26 11:20:17;;;;;;;0.63;0.60;;;;;;;5.05;44.56;99980.53;5088019;28;20024;-66
2023/11/26 11:22:42;;;;;;;1.20;0.70;;;;;;;3.71;45.21;99977.50;5105707;28;20023;-65
2023/11/26 11:25:13;;;;;;;0.80;0.80;;;;;;;2.90;47.84;99982.34;5105954;28;20020;-65
2023/11/26 11:27:58;;;;;;;2.10;1.23;;;;;;;2.21;48.93;99980.28;5105482;22;20063;-66
2023/11/26 11:30:33;;;;;;;1.80;1.65;;;;;;;1.71;49.85;99982.72;5081184;22;20446;-69
2023/11/26 11:33:06;;;;;;;1.13;1.02;;;;;;;1.21;50.06;99983.34;5064646;28;20510;-68
2023/11/26 11:35:46;;;;;;;8.48;1.33;;;;;;;0.80;50.92;99981.53;5065382;28;20032;-68
2023/11/26 11:38:14;;;;;;;0.80;0.75;;;;;;;0.48;51.75;99980.75;5065139;28;20025;-68